Ralston Corner, Vermont
Current Conditions -  °F | °C
As of 10:15 PM on Tuesday 25 Nov 2014 (Local Time) from KCDA Reporting Station
Overcast Overcast  
Wind Chill: 35°   Ceiling: 5000
Heat Index: 39°   Visibility: 10mi
Dew Point: 23°   Wind: 6mph
Humidity: 52%   Direction: 170°S
Pressure: 30.01"   Gusts: NA
Location:  44.4417°N, 71.859°W
Report Text: KCDA 260315Z AUTO 17005KT 10SM OVC050 04/M05 A3001 RMK AO2 T00411050
Loading
Personal Weather Stations






























Interactive Weather Map New forecast layout! Learn more

10-Day Weather Forecast

Advertisements
Track Severe Weather on mobile